Wallblake, Anguilla

3:35 PM AST on August 28, 2015 (GMT -0400)
Wallblake | | Change Station
CLOSE
Current Station
Airport
Location: Wall Blake,
Elevation: 95 ft
Nearby Weather Stations

Elev 95 ft 18.20 °N, 63.06 °W | Updated 35 minutes ago

Mostly Cloudy
Mostly Cloudy
86 °F
Feels Like 97 °F
N
15
Wind Variable Wind from East

Today
High -- | Low -- °F
--% Chance of Precip.
Yesterday
High -- | Low -- °F
Precip. -- in
5:57 AM 6:29 PM
Waxing Gibbous, 99% visible
Pressure 30.01 in
Visibility 6.2 miles
Clouds Few 1900 ft
Mostly Cloudy 8000 ft
Mostly Cloudy 28000 ft
Heat Index 97 °F
Dew Point 77 °F
Humidity 74%
Rainfall 0.00 in
Snow Depth Not available.
UV 5 out of 12
Pollen Not available.
Air Quality Not available.
Flu Activity Not available.
METAR TQPF 281900Z 10013KT 9999 FEW019 BKN080 BKN280 30/25 Q1016
Pressure 30.01 in
Visibility 6.2 miles
Clouds Few 1900 ft
Mostly Cloudy 8000 ft
Mostly Cloudy 28000 ft
Heat Index 97 °F
Dew Point 77 °F
Humidity 74%
Rainfall 0.00 in
Snow Depth Not available.
UV 5 out of 12
Pollen Not available.
Air Quality Not available.
Flu Activity Not available.
METAR TQPF 281900Z 10013KT 9999 FEW019 BKN080 BKN280 30/25 Q1016

10-Day Weather Forecast

×

Almanac

Astronomy

Aug. 28, 2015 Rise Set
Actual Time
Civil Twilight
Nautical Twilight
Astronomical Twilight
Moon
Length of Visible Light
Length of Day
Tomorrow will be .
, % of the Moon is Illuminated

Today's Extremes

Country Highs Country Lows

Community

WunderPhotos

Upload Photos

1,850,464 photos uploaded!

WunderBlogs® & News

Nearby

Air Quality

  Air Quality AQ Index Pollutant
Not available.

Snow Depth

Station Depth Elevation

Earthquake Activity

City Distance Mag. Time & Date
Minimum magnitude displayed is 2.5.

Coastal Water Temperatures

Place Temperature

Stations

Nearby Weather Stations

Station Location Temp. Windchill Dew Point Humidity Wind Precip. Elev Updated Type